sensor_id;sensor_type;location;lat;lon;timestamp;P1;durP1;ratioP1;P2;durP2;ratioP2
26824;SDS011;14402;48.178;11.566;2023-02-21T00:17:11;3.2;;;1.8;;
26824;SDS011;14402;48.178;11.566;2023-02-21T01:17:18;2.1;;;1.6;;
26824;SDS011;14402;48.178;11.566;2023-02-21T01:20:47;4.0;;;2.0;;
26824;SDS011;14402;48.178;11.566;2023-02-21T01:24:17;3.0;;;2.1;;
26824;SDS011;14402;48.178;11.566;2023-02-21T01:27:48;5.8;;;2.2;;
26824;SDS011;14402;48.178;11.566;2023-02-21T01:31:18;4.5;;;2.1;;
26824;SDS011;14402;48.178;11.566;2023-02-21T02:17:27;7.3;;;2.5;;
26824;SDS011;14402;48.178;11.566;2023-02-21T02:18:02;9.6;;;2.6;;
26824;SDS011;14402;48.178;11.566;2023-02-21T02:18:43;12.0;;;2.7;;
26824;SDS011;14402;48.178;11.566;2023-02-21T02:18:58;12.0;;;2.7;;
26824;SDS011;14402;48.178;11.566;2023-02-21T02:19:34;12.0;;;2.7;;
26824;SDS011;14402;48.178;11.566;2023-02-21T02:20:02;10.1;;;2.6;;
26824;SDS011;14402;48.178;11.566;2023-02-21T02:20:31;8.2;;;2.4;;
26824;SDS011;14402;48.178;11.566;2023-02-21T02:23:59;16.0;;;2.9;;
26824;SDS011;14402;48.178;11.566;2023-02-21T02:24:29;16.1;;;3.3;;
26824;SDS011;14402;48.178;11.566;2023-02-21T02:24:57;16.1;;;3.3;;
26824;SDS011;14402;48.178;11.566;2023-02-21T02:25:27;16.1;;;3.3;;
26824;SDS011;14402;48.178;11.566;2023-02-21T02:25:59;11.3;;;2.8;;
26824;SDS011;14402;48.178;11.566;2023-02-21T02:26:31;6.5;;;2.3;;
26824;SDS011;14402;48.178;11.566;2023-02-21T02:26:59;6.5;;;2.3;;
26824;SDS011;14402;48.178;11.566;2023-02-21T02:32:31;7.5;;;2.6;;
26824;SDS011;14402;48.178;11.566;2023-02-21T02:33:17;7.5;;;2.6;;
26824;SDS011;14402;48.178;11.566;2023-02-21T02:33:26;7.5;;;2.6;;
26824;SDS011;14402;48.178;11.566;2023-02-21T02:34:08;5.3;;;2.2;;
26824;SDS011;14402;48.178;11.566;2023-02-21T02:34:28;3.1;;;1.8;;
26824;SDS011;14402;48.178;11.566;2023-02-21T02:34:56;3.1;;;1.8;;
26824;SDS011;14402;48.178;11.566;2023-02-21T02:35:25;3.1;;;1.8;;
26824;SDS011;14402;48.178;11.566;2023-02-21T02:35:55;4.2;;;2.0;;
26824;SDS011;14402;48.178;11.566;2023-02-21T02:36:26;5.4;;;2.3;;
26824;SDS011;14402;48.178;11.566;2023-02-21T02:36:56;5.4;;;2.3;;
26824;SDS011;14402;48.178;11.566;2023-02-21T02:37:27;5.4;;;2.3;;
26824;SDS011;14402;48.178;11.566;2023-02-21T02:37:56;6.2;;;2.3;;
26824;SDS011;14402;48.178;11.566;2023-02-21T02:38:25;7.0;;;2.4;;
26824;SDS011;14402;48.178;11.566;2023-02-21T02:38:58;7.0;;;2.4;;
26824;SDS011;14402;48.178;11.566;2023-02-21T02:39:28;7.0;;;2.4;;
26824;SDS011;14402;48.178;11.566;2023-02-21T02:39:57;8.6;;;2.6;;
26824;SDS011;14402;48.178;11.566;2023-02-21T02:40:26;10.3;;;2.7;;
26824;SDS011;14402;48.178;11.566;2023-02-21T02:40:56;10.3;;;2.7;;
26824;SDS011;14402;48.178;11.566;2023-02-21T02:41:27;10.3;;;2.7;;
26824;SDS011;14402;48.178;11.566;2023-02-21T02:41:57;7.8;;;2.5;;
26824;SDS011;14402;48.178;11.566;2023-02-21T02:42:30;5.3;;;2.2;;
26824;SDS011;14402;48.178;11.566;2023-02-21T02:42:59;5.3;;;2.2;;
26824;SDS011;14402;48.178;11.566;2023-02-21T02:43:27;5.3;;;2.2;;
26824;SDS011;14402;48.178;11.566;2023-02-21T02:43:57;4.9;;;2.2;;
26824;SDS011;14402;48.178;11.566;2023-02-21T02:44:27;4.5;;;2.1;;
26824;SDS011;14402;48.178;11.566;2023-02-21T02:44:56;4.5;;;2.1;;
26824;SDS011;14402;48.178;11.566;2023-02-21T02:45:27;4.5;;;2.1;;
26824;SDS011;14402;48.178;11.566;2023-02-21T02:45:57;5.8;;;2.2;;
26824;SDS011;14402;48.178;11.566;2023-02-21T02:46:26;7.0;;;2.4;;
26824;SDS011;14402;48.178;11.566;2023-02-21T02:46:56;7.0;;;2.4;;
26824;SDS011;14402;48.178;11.566;2023-02-21T02:47:27;7.0;;;2.4;;
26824;SDS011;14402;48.178;11.566;2023-02-21T02:47:56;5.6;;;2.2;;
26824;SDS011;14402;48.178;11.566;2023-02-21T02:48:27;4.2;;;2.1;;
26824;SDS011;14402;48.178;11.566;2023-02-21T02:48:57;4.2;;;2.1;;
26824;SDS011;14402;48.178;11.566;2023-02-21T02:49:26;4.2;;;2.1;;
26824;SDS011;14402;48.178;11.566;2023-02-21T02:49:56;3.5;;;1.9;;
26824;SDS011;14402;48.178;11.566;2023-02-21T02:50:26;2.9;;;1.8;;
26824;SDS011;14402;48.178;11.566;2023-02-21T02:50:56;2.9;;;1.8;;
26824;SDS011;14402;48.178;11.566;2023-02-21T02:51:26;2.9;;;1.8;;
26824;SDS011;14402;48.178;11.566;2023-02-21T02:52:01;3.3;;;1.8;;
26824;SDS011;14402;48.178;11.566;2023-02-21T02:52:26;3.7;;;1.9;;
26824;SDS011;14402;48.178;11.566;2023-02-21T02:52:59;3.7;;;1.9;;
26824;SDS011;14402;48.178;11.566;2023-02-21T02:53:27;3.7;;;1.9;;
26824;SDS011;14402;48.178;11.566;2023-02-21T02:53:56;3.6;;;2.2;;
26824;SDS011;14402;48.178;11.566;2023-02-21T02:54:26;3.4;;;2.4;;
26824;SDS011;14402;48.178;11.566;2023-02-21T02:54:57;3.4;;;2.4;;
26824;SDS011;14402;48.178;11.566;2023-02-21T02:55:29;3.4;;;2.4;;
26824;SDS011;14402;48.178;11.566;2023-02-21T02:55:58;3.2;;;2.2;;
26824;SDS011;14402;48.178;11.566;2023-02-21T02:56:27;2.9;;;2.0;;
26824;SDS011;14402;48.178;11.566;2023-02-21T02:56:57;2.9;;;2.0;;
26824;SDS011;14402;48.178;11.566;2023-02-21T02:57:28;2.9;;;2.0;;
26824;SDS011;14402;48.178;11.566;2023-02-21T02:57:57;2.7;;;1.9;;
26824;SDS011;14402;48.178;11.566;2023-02-21T02:58:28;2.5;;;1.8;;
26824;SDS011;14402;48.178;11.566;2023-02-21T02:58:59;2.5;;;1.8;;
26824;SDS011;14402;48.178;11.566;2023-02-21T02:59:27;2.5;;;1.8;;
26824;SDS011;14402;48.178;11.566;2023-02-21T02:59:57;4.6;;;2.0;;
26824;SDS011;14402;48.178;11.566;2023-02-21T03:00:28;6.7;;;2.2;;
26824;SDS011;14402;48.178;11.566;2023-02-21T03:01:02;6.7;;;2.2;;
26824;SDS011;14402;48.178;11.566;2023-02-21T03:01:34;6.7;;;2.2;;
26824;SDS011;14402;48.178;11.566;2023-02-21T03:02:06;5.2;;;2.1;;
26824;SDS011;14402;48.178;11.566;2023-02-21T03:02:33;3.7;;;2.0;;
26824;SDS011;14402;48.178;11.566;2023-02-21T03:03:02;3.7;;;2.0;;
26824;SDS011;14402;48.178;11.566;2023-02-21T03:03:31;3.7;;;2.0;;
26824;SDS011;14402;48.178;11.566;2023-02-21T03:04:01;5.2;;;2.2;;
26824;SDS011;14402;48.178;11.566;2023-02-21T03:04:32;6.6;;;2.5;;
26824;SDS011;14402;48.178;11.566;2023-02-21T03:05:02;6.6;;;2.5;;
26824;SDS011;14402;48.178;11.566;2023-02-21T03:05:32;6.6;;;2.5;;
26824;SDS011;14402;48.178;11.566;2023-02-21T03:06:00;7.2;;;2.4;;
26824;SDS011;14402;48.178;11.566;2023-02-21T03:06:30;7.8;;;2.3;;
26824;SDS011;14402;48.178;11.566;2023-02-21T03:07:00;7.8;;;2.3;;
26824;SDS011;14402;48.178;11.566;2023-02-21T03:07:30;7.8;;;2.3;;
26824;SDS011;14402;48.178;11.566;2023-02-21T03:07:58;8.8;;;2.4;;
26824;SDS011;14402;48.178;11.566;2023-02-21T03:08:30;9.8;;;2.6;;
26824;SDS011;14402;48.178;11.566;2023-02-21T03:09:00;9.8;;;2.6;;
26824;SDS011;14402;48.178;11.566;2023-02-21T03:09:30;9.8;;;2.6;;
26824;SDS011;14402;48.178;11.566;2023-02-21T03:10:01;12.6;;;2.5;;
26824;SDS011;14402;48.178;11.566;2023-02-21T03:10:32;15.4;;;2.5;;
26824;SDS011;14402;48.178;11.566;2023-02-21T03:11:00;15.4;;;2.5;;
26824;SDS011;14402;48.178;11.566;2023-02-21T03:11:28;15.4;;;2.5;;
26824;SDS011;14402;48.178;11.566;2023-02-21T03:11:59;19.9;;;3.0;;
26824;SDS011;14402;48.178;11.566;2023-02-21T03:12:31;24.4;;;3.5;;
26824;SDS011;14402;48.178;11.566;2023-02-21T03:13:00;24.4;;;3.5;;
26824;SDS011;14402;48.178;11.566;2023-02-21T03:13:31;24.4;;;3.5;;
26824;SDS011;14402;48.178;11.566;2023-02-21T03:14:01;15.8;;;3.1;;
26824;SDS011;14402;48.178;11.566;2023-02-21T03:14:29;7.1;;;2.7;;
26824;SDS011;14402;48.178;11.566;2023-02-21T03:14:59;7.1;;;2.7;;
26824;SDS011;14402;48.178;11.566;2023-02-21T03:15:31;7.1;;;2.7;;
26824;SDS011;14402;48.178;11.566;2023-02-21T03:16:00;8.2;;;2.8;;
26824;SDS011;14402;48.178;11.566;2023-02-21T03:16:30;9.3;;;2.9;;
26824;SDS011;14402;48.178;11.566;2023-02-21T03:17:00;9.3;;;2.9;;
26824;SDS011;14402;48.178;11.566;2023-02-21T03:17:31;9.3;;;2.9;;
26824;SDS011;14402;48.178;11.566;2023-02-21T03:18:00;9.2;;;2.7;;
26824;SDS011;14402;48.178;11.566;2023-02-21T03:18:30;9.2;;;2.4;;
26824;SDS011;14402;48.178;11.566;2023-02-21T03:19:01;9.2;;;2.4;;
26824;SDS011;14402;48.178;11.566;2023-02-21T03:19:30;9.2;;;2.4;;
26824;SDS011;14402;48.178;11.566;2023-02-21T03:19:59;8.4;;;2.5;;
26824;SDS011;14402;48.178;11.566;2023-02-21T03:20:29;7.5;;;2.6;;
26824;SDS011;14402;48.178;11.566;2023-02-21T03:21:00;7.5;;;2.6;;
26824;SDS011;14402;48.178;11.566;2023-02-21T03:21:30;7.5;;;2.6;;
26824;SDS011;14402;48.178;11.566;2023-02-21T03:22:00;8.4;;;2.5;;
26824;SDS011;14402;48.178;11.566;2023-02-21T03:22:30;9.2;;;2.4;;
26824;SDS011;14402;48.178;11.566;2023-02-21T03:23:00;9.2;;;2.4;;
26824;SDS011;14402;48.178;11.566;2023-02-21T03:23:30;9.2;;;2.4;;
26824;SDS011;14402;48.178;11.566;2023-02-21T03:24:00;7.2;;;2.3;;
26824;SDS011;14402;48.178;11.566;2023-02-21T03:24:30;5.3;;;2.3;;
26824;SDS011;14402;48.178;11.566;2023-02-21T03:25:01;5.3;;;2.3;;
26824;SDS011;14402;48.178;11.566;2023-02-21T03:25:30;5.3;;;2.3;;
26824;SDS011;14402;48.178;11.566;2023-02-21T03:26:01;4.9;;;2.3;;
26824;SDS011;14402;48.178;11.566;2023-02-21T03:26:31;4.6;;;2.3;;
26824;SDS011;14402;48.178;11.566;2023-02-21T03:27:01;4.6;;;2.3;;
26824;SDS011;14402;48.178;11.566;2023-02-21T03:27:30;4.6;;;2.3;;
26824;SDS011;14402;48.178;11.566;2023-02-21T03:28:00;4.2;;;2.2;;
26824;SDS011;14402;48.178;11.566;2023-02-21T03:28:30;3.8;;;2.1;;
26824;SDS011;14402;48.178;11.566;2023-02-21T03:29:00;3.8;;;2.1;;
26824;SDS011;14402;48.178;11.566;2023-02-21T03:29:30;3.8;;;2.1;;
26824;SDS011;14402;48.178;11.566;2023-02-21T03:30:02;3.5;;;2.2;;
26824;SDS011;14402;48.178;11.566;2023-02-21T03:30:30;3.2;;;2.2;;
26824;SDS011;14402;48.178;11.566;2023-02-21T03:31:00;3.2;;;2.2;;
26824;SDS011;14402;48.178;11.566;2023-02-21T03:31:32;3.2;;;2.2;;
26824;SDS011;14402;48.178;11.566;2023-02-21T03:32:02;3.2;;;2.2;;
26824;SDS011;14402;48.178;11.566;2023-02-21T03:32:31;3.2;;;2.1;;
26824;SDS011;14402;48.178;11.566;2023-02-21T03:33:01;3.2;;;2.1;;
26824;SDS011;14402;48.178;11.566;2023-02-21T03:33:31;3.2;;;2.1;;
26824;SDS011;14402;48.178;11.566;2023-02-21T03:34:01;2.8;;;2.0;;
26824;SDS011;14402;48.178;11.566;2023-02-21T03:34:31;2.3;;;2.0;;
26824;SDS011;14402;48.178;11.566;2023-02-21T03:35:01;2.3;;;2.0;;
26824;SDS011;14402;48.178;11.566;2023-02-21T03:35:31;2.3;;;2.0;;
26824;SDS011;14402;48.178;11.566;2023-02-21T03:36:02;3.2;;;2.1;;
26824;SDS011;14402;48.178;11.566;2023-02-21T03:36:31;4.1;;;2.2;;
26824;SDS011;14402;48.178;11.566;2023-02-21T03:37:01;4.1;;;2.2;;
26824;SDS011;14402;48.178;11.566;2023-02-21T03:37:32;4.1;;;2.2;;
26824;SDS011;14402;48.178;11.566;2023-02-21T03:38:01;4.3;;;2.2;;
26824;SDS011;14402;48.178;11.566;2023-02-21T03:38:31;4.6;;;2.3;;
26824;SDS011;14402;48.178;11.566;2023-02-21T03:39:01;4.6;;;2.3;;
26824;SDS011;14402;48.178;11.566;2023-02-21T03:39:31;4.6;;;2.3;;
26824;SDS011;14402;48.178;11.566;2023-02-21T03:40:02;4.6;;;2.3;;
26824;SDS011;14402;48.178;11.566;2023-02-21T03:40:32;4.6;;;2.4;;
26824;SDS011;14402;48.178;11.566;2023-02-21T03:41:01;4.6;;;2.4;;
26824;SDS011;14402;48.178;11.566;2023-02-21T03:41:31;4.6;;;2.4;;
26824;SDS011;14402;48.178;11.566;2023-02-21T03:42:01;4.3;;;2.2;;
26824;SDS011;14402;48.178;11.566;2023-02-21T03:42:31;4.0;;;2.0;;
26824;SDS011;14402;48.178;11.566;2023-02-21T03:43:02;4.0;;;2.0;;
26824;SDS011;14402;48.178;11.566;2023-02-21T03:43:32;4.0;;;2.0;;
26824;SDS011;14402;48.178;11.566;2023-02-21T03:44:02;4.3;;;2.0;;
26824;SDS011;14402;48.178;11.566;2023-02-21T03:44:32;4.6;;;2.0;;
26824;SDS011;14402;48.178;11.566;2023-02-21T03:45:02;4.6;;;2.0;;
26824;SDS011;14402;48.178;11.566;2023-02-21T03:45:32;4.6;;;2.0;;
26824;SDS011;14402;48.178;11.566;2023-02-21T03:46:02;4.8;;;2.2;;
26824;SDS011;14402;48.178;11.566;2023-02-21T03:46:32;4.9;;;2.3;;
26824;SDS011;14402;48.178;11.566;2023-02-21T03:47:02;4.9;;;2.3;;
26824;SDS011;14402;48.178;11.566;2023-02-21T03:47:32;4.9;;;2.3;;
26824;SDS011;14402;48.178;11.566;2023-02-21T03:48:02;4.2;;;2.2;;
26824;SDS011;14402;48.178;11.566;2023-02-21T03:48:32;3.5;;;2.0;;
26824;SDS011;14402;48.178;11.566;2023-02-21T03:49:02;3.5;;;2.0;;
26824;SDS011;14402;48.178;11.566;2023-02-21T03:49:32;3.5;;;2.0;;
26824;SDS011;14402;48.178;11.566;2023-02-21T03:50:03;3.5;;;2.2;;
26824;SDS011;14402;48.178;11.566;2023-02-21T03:50:32;3.5;;;2.3;;
26824;SDS011;14402;48.178;11.566;2023-02-21T03:51:03;3.5;;;2.3;;
26824;SDS011;14402;48.178;11.566;2023-02-21T03:51:33;3.5;;;2.3;;
26824;SDS011;14402;48.178;11.566;2023-02-21T03:52:03;3.9;;;2.0;;
26824;SDS011;14402;48.178;11.566;2023-02-21T03:52:33;4.3;;;1.7;;
26824;SDS011;14402;48.178;11.566;2023-02-21T03:53:03;4.3;;;1.7;;
26824;SDS011;14402;48.178;11.566;2023-02-21T03:53:33;4.3;;;1.7;;
26824;SDS011;14402;48.178;11.566;2023-02-21T03:54:03;3.4;;;1.8;;
26824;SDS011;14402;48.178;11.566;2023-02-21T03:54:33;2.5;;;1.8;;
26824;SDS011;14402;48.178;11.566;2023-02-21T03:55:03;2.5;;;1.8;;
26824;SDS011;14402;48.178;11.566;2023-02-21T03:55:33;2.5;;;1.8;;
26824;SDS011;14402;48.178;11.566;2023-02-21T03:56:03;4.8;;;3.1;;
26824;SDS011;14402;48.178;11.566;2023-02-21T03:56:33;7.2;;;4.4;;
26824;SDS011;14402;48.178;11.566;2023-02-21T03:57:03;7.2;;;4.4;;
26824;SDS011;14402;48.178;11.566;2023-02-21T03:57:33;7.2;;;4.4;;
26824;SDS011;14402;48.178;11.566;2023-02-21T03:58:03;7.9;;;5.6;;
26824;SDS011;14402;48.178;11.566;2023-02-21T03:58:34;8.7;;;6.7;;
26824;SDS011;14402;48.178;11.566;2023-02-21T03:59:04;8.7;;;6.7;;
26824;SDS011;14402;48.178;11.566;2023-02-21T03:59:34;8.7;;;6.7;;
26824;SDS011;14402;48.178;11.566;2023-02-21T04:00:04;5.9;;;4.6;;
26824;SDS011;14402;48.178;11.566;2023-02-21T04:00:34;3.2;;;2.4;;
26824;SDS011;14402;48.178;11.566;2023-02-21T04:01:04;3.2;;;2.4;;
26824;SDS011;14402;48.178;11.566;2023-02-21T04:01:34;3.2;;;2.4;;
26824;SDS011;14402;48.178;11.566;2023-02-21T04:02:04;9.1;;;7.2;;
26824;SDS011;14402;48.178;11.566;2023-02-21T04:02:34;14.9;;;12.0;;
26824;SDS011;14402;48.178;11.566;2023-02-21T04:03:04;14.9;;;12.0;;
26824;SDS011;14402;48.178;11.566;2023-02-21T04:03:34;14.9;;;12.0;;
26824;SDS011;14402;48.178;11.566;2023-02-21T04:04:04;11.2;;;8.4;;
26824;SDS011;14402;48.178;11.566;2023-02-21T04:04:34;7.5;;;4.7;;
26824;SDS011;14402;48.178;11.566;2023-02-21T04:05:04;7.5;;;4.7;;
26824;SDS011;14402;48.178;11.566;2023-02-21T04:05:34;7.5;;;4.7;;
26824;SDS011;14402;48.178;11.566;2023-02-21T04:06:04;5.7;;;3.4;;
26824;SDS011;14402;48.178;11.566;2023-02-21T04:06:34;3.9;;;2.2;;
26824;SDS011;14402;48.178;11.566;2023-02-21T04:07:04;3.9;;;2.2;;
26824;SDS011;14402;48.178;11.566;2023-02-21T04:07:35;3.9;;;2.2;;
26824;SDS011;14402;48.178;11.566;2023-02-21T04:08:05;3.5;;;2.2;;
26824;SDS011;14402;48.178;11.566;2023-02-21T04:08:35;3.1;;;2.1;;
26824;SDS011;14402;48.178;11.566;2023-02-21T04:09:05;3.1;;;2.1;;
26824;SDS011;14402;48.178;11.566;2023-02-21T04:09:35;3.1;;;2.1;;
26824;SDS011;14402;48.178;11.566;2023-02-21T04:10:05;4.2;;;2.0;;
26824;SDS011;14402;48.178;11.566;2023-02-21T04:10:35;5.3;;;2.0;;
26824;SDS011;14402;48.178;11.566;2023-02-21T04:11:05;5.3;;;2.0;;
26824;SDS011;14402;48.178;11.566;2023-02-21T04:11:35;5.3;;;2.0;;
26824;SDS011;14402;48.178;11.566;2023-02-21T04:12:05;4.7;;;2.0;;
26824;SDS011;14402;48.178;11.566;2023-02-21T04:12:35;4.1;;;2.1;;
26824;SDS011;14402;48.178;11.566;2023-02-21T04:13:05;4.1;;;2.1;;
26824;SDS011;14402;48.178;11.566;2023-02-21T04:13:35;4.1;;;2.1;;
26824;SDS011;14402;48.178;11.566;2023-02-21T04:14:05;3.3;;;2.2;;
26824;SDS011;14402;48.178;11.566;2023-02-21T04:14:35;2.6;;;2.2;;
26824;SDS011;14402;48.178;11.566;2023-02-21T04:15:06;2.6;;;2.2;;
26824;SDS011;14402;48.178;11.566;2023-02-21T04:15:35;2.6;;;2.2;;
26824;SDS011;14402;48.178;11.566;2023-02-21T04:16:05;3.6;;;2.1;;
26824;SDS011;14402;48.178;11.566;2023-02-21T04:16:36;4.6;;;2.0;;
26824;SDS011;14402;48.178;11.566;2023-02-21T04:17:07;4.6;;;2.0;;
26824;SDS011;14402;48.178;11.566;2023-02-21T04:17:36;4.6;;;2.0;;
26824;SDS011;14402;48.178;11.566;2023-02-21T04:18:06;4.1;;;2.0;;
26824;SDS011;14402;48.178;11.566;2023-02-21T04:18:36;3.5;;;2.0;;
26824;SDS011;14402;48.178;11.566;2023-02-21T04:19:06;3.5;;;2.0;;
26824;SDS011;14402;48.178;11.566;2023-02-21T04:19:36;3.5;;;2.0;;
26824;SDS011;14402;48.178;11.566;2023-02-21T04:20:06;3.7;;;2.0;;
26824;SDS011;14402;48.178;11.566;2023-02-21T04:20:36;3.9;;;2.1;;
26824;SDS011;14402;48.178;11.566;2023-02-21T04:21:06;3.9;;;2.1;;
26824;SDS011;14402;48.178;11.566;2023-02-21T04:21:36;3.9;;;2.1;;
26824;SDS011;14402;48.178;11.566;2023-02-21T04:22:06;3.8;;;2.1;;
26824;SDS011;14402;48.178;11.566;2023-02-21T04:22:36;3.7;;;2.1;;
26824;SDS011;14402;48.178;11.566;2023-02-21T04:23:06;3.7;;;2.1;;
26824;SDS011;14402;48.178;11.566;2023-02-21T04:23:36;3.7;;;2.1;;
26824;SDS011;14402;48.178;11.566;2023-02-21T04:24:06;3.7;;;2.2;;
26824;SDS011;14402;48.178;11.566;2023-02-21T04:24:36;3.7;;;2.2;;
26824;SDS011;14402;48.178;11.566;2023-02-21T04:25:07;3.7;;;2.2;;
26824;SDS011;14402;48.178;11.566;2023-02-21T04:25:36;3.7;;;2.2;;
26824;SDS011;14402;48.178;11.566;2023-02-21T04:26:06;4.4;;;2.2;;
26824;SDS011;14402;48.178;11.566;2023-02-21T04:26:37;5.1;;;2.2;;
26824;SDS011;14402;48.178;11.566;2023-02-21T04:27:07;5.1;;;2.2;;
26824;SDS011;14402;48.178;11.566;2023-02-21T04:27:37;5.1;;;2.2;;
26824;SDS011;14402;48.178;11.566;2023-02-21T04:28:07;4.9;;;2.2;;
26824;SDS011;14402;48.178;11.566;2023-02-21T04:28:37;4.7;;;2.3;;
26824;SDS011;14402;48.178;11.566;2023-02-21T04:29:07;4.7;;;2.3;;
26824;SDS011;14402;48.178;11.566;2023-02-21T04:29:37;4.7;;;2.3;;
26824;SDS011;14402;48.178;11.566;2023-02-21T04:30:07;5.1;;;2.4;;
26824;SDS011;14402;48.178;11.566;2023-02-21T04:30:37;5.5;;;2.6;;
26824;SDS011;14402;48.178;11.566;2023-02-21T04:31:07;5.5;;;2.6;;
26824;SDS011;14402;48.178;11.566;2023-02-21T04:31:37;5.5;;;2.6;;
26824;SDS011;14402;48.178;11.566;2023-02-21T04:32:08;6.6;;;2.6;;
26824;SDS011;14402;48.178;11.566;2023-02-21T04:32:37;7.6;;;2.6;;
26824;SDS011;14402;48.178;11.566;2023-02-21T04:33:07;7.6;;;2.6;;
26824;SDS011;14402;48.178;11.566;2023-02-21T04:33:37;7.6;;;2.6;;
26824;SDS011;14402;48.178;11.566;2023-02-21T04:34:07;5.6;;;2.5;;
26824;SDS011;14402;48.178;11.566;2023-02-21T04:34:37;3.6;;;2.4;;
26824;SDS011;14402;48.178;11.566;2023-02-21T04:35:07;3.6;;;2.4;;
26824;SDS011;14402;48.178;11.566;2023-02-21T04:35:37;3.6;;;2.4;;
26824;SDS011;14402;48.178;11.566;2023-02-21T04:36:07;4.3;;;2.4;;
26824;SDS011;14402;48.178;11.566;2023-02-21T04:36:38;5.0;;;2.4;;
26824;SDS011;14402;48.178;11.566;2023-02-21T04:37:08;5.0;;;2.4;;
26824;SDS011;14402;48.178;11.566;2023-02-21T04:37:38;5.0;;;2.4;;
26824;SDS011;14402;48.178;11.566;2023-02-21T04:38:08;4.3;;;2.3;;
26824;SDS011;14402;48.178;11.566;2023-02-21T04:38:38;3.6;;;2.2;;
26824;SDS011;14402;48.178;11.566;2023-02-21T04:39:08;3.6;;;2.2;;
26824;SDS011;14402;48.178;11.566;2023-02-21T04:39:38;3.6;;;2.2;;
26824;SDS011;14402;48.178;11.566;2023-02-21T04:40:08;4.4;;;2.2;;
26824;SDS011;14402;48.178;11.566;2023-02-21T04:40:38;5.3;;;2.2;;
26824;SDS011;14402;48.178;11.566;2023-02-21T04:41:08;5.3;;;2.2;;
26824;SDS011;14402;48.178;11.566;2023-02-21T04:41:38;5.3;;;2.2;;
26824;SDS011;14402;48.178;11.566;2023-02-21T04:42:08;5.3;;;2.2;;
26824;SDS011;14402;48.178;11.566;2023-02-21T04:42:38;5.3;;;2.3;;
26824;SDS011;14402;48.178;11.566;2023-02-21T04:43:08;5.3;;;2.3;;
26824;SDS011;14402;48.178;11.566;2023-02-21T04:43:40;5.3;;;2.3;;
26824;SDS011;14402;48.178;11.566;2023-02-21T04:44:08;5.2;;;2.3;;
26824;SDS011;14402;48.178;11.566;2023-02-21T04:44:38;5.2;;;2.3;;
26824;SDS011;14402;48.178;11.566;2023-02-21T04:45:08;5.2;;;2.3;;
26824;SDS011;14402;48.178;11.566;2023-02-21T04:45:39;5.2;;;2.3;;
26824;SDS011;14402;48.178;11.566;2023-02-21T04:46:08;5.8;;;2.4;;
26824;SDS011;14402;48.178;11.566;2023-02-21T04:46:39;6.3;;;2.5;;
26824;SDS011;14402;48.178;11.566;2023-02-21T04:47:09;6.3;;;2.5;;
26824;SDS011;14402;48.178;11.566;2023-02-21T04:47:39;6.3;;;2.5;;
26824;SDS011;14402;48.178;11.566;2023-02-21T04:48:09;6.2;;;2.5;;
26824;SDS011;14402;48.178;11.566;2023-02-21T04:48:39;6.0;;;2.5;;
26824;SDS011;14402;48.178;11.566;2023-02-21T04:49:09;6.0;;;2.5;;
26824;SDS011;14402;48.178;11.566;2023-02-21T04:49:39;6.0;;;2.5;;
26824;SDS011;14402;48.178;11.566;2023-02-21T04:50:09;5.7;;;2.4;;
26824;SDS011;14402;48.178;11.566;2023-02-21T04:50:39;5.3;;;2.3;;
26824;SDS011;14402;48.178;11.566;2023-02-21T04:51:09;5.3;;;2.3;;
26824;SDS011;14402;48.178;11.566;2023-02-21T04:51:39;5.3;;;2.3;;
26824;SDS011;14402;48.178;11.566;2023-02-21T04:52:09;5.0;;;2.5;;
26824;SDS011;14402;48.178;11.566;2023-02-21T04:52:39;4.7;;;2.7;;
26824;SDS011;14402;48.178;11.566;2023-02-21T04:53:09;4.7;;;2.7;;
26824;SDS011;14402;48.178;11.566;2023-02-21T04:53:39;4.7;;;2.7;;
26824;SDS011;14402;48.178;11.566;2023-02-21T04:54:09;6.5;;;2.6;;
26824;SDS011;14402;48.178;11.566;2023-02-21T04:54:39;8.4;;;2.4;;
26824;SDS011;14402;48.178;11.566;2023-02-21T04:55:10;8.4;;;2.4;;
26824;SDS011;14402;48.178;11.566;2023-02-21T04:55:40;8.4;;;2.4;;
26824;SDS011;14402;48.178;11.566;2023-02-21T04:56:10;6.6;;;2.4;;
26824;SDS011;14402;48.178;11.566;2023-02-21T04:56:40;4.8;;;2.4;;
26824;SDS011;14402;48.178;11.566;2023-02-21T04:57:10;4.8;;;2.4;;
26824;SDS011;14402;48.178;11.566;2023-02-21T04:57:40;4.8;;;2.4;;
26824;SDS011;14402;48.178;11.566;2023-02-21T04:58:10;5.9;;;2.5;;
26824;SDS011;14402;48.178;11.566;2023-02-21T04:58:40;7.1;;;2.5;;
26824;SDS011;14402;48.178;11.566;2023-02-21T04:59:10;7.1;;;2.5;;
26824;SDS011;14402;48.178;11.566;2023-02-21T04:59:40;7.1;;;2.5;;
26824;SDS011;14402;48.178;11.566;2023-02-21T05:00:10;5.8;;;2.5;;
26824;SDS011;14402;48.178;11.566;2023-02-21T05:00:40;4.6;;;2.5;;
26824;SDS011;14402;48.178;11.566;2023-02-21T05:01:11;4.6;;;2.5;;
26824;SDS011;14402;48.178;11.566;2023-02-21T05:01:40;4.6;;;2.5;;
26824;SDS011;14402;48.178;11.566;2023-02-21T05:02:10;5.3;;;2.6;;
26824;SDS011;14402;48.178;11.566;2023-02-21T05:02:41;6.1;;;2.7;;
26824;SDS011;14402;48.178;11.566;2023-02-21T05:03:11;6.1;;;2.7;;
26824;SDS011;14402;48.178;11.566;2023-02-21T05:03:41;6.1;;;2.7;;
26824;SDS011;14402;48.178;11.566;2023-02-21T05:04:11;5.2;;;2.6;;
26824;SDS011;14402;48.178;11.566;2023-02-21T05:04:41;4.4;;;2.5;;
26824;SDS011;14402;48.178;11.566;2023-02-21T05:05:11;4.4;;;2.5;;
26824;SDS011;14402;48.178;11.566;2023-02-21T05:05:41;4.4;;;2.5;;
26824;SDS011;14402;48.178;11.566;2023-02-21T05:06:15;4.4;;;2.5;;
26824;SDS011;14402;48.178;11.566;2023-02-21T05:06:41;4.4;;;2.5;;
26824;SDS011;14402;48.178;11.566;2023-02-21T05:07:11;4.4;;;2.5;;
26824;SDS011;14402;48.178;11.566;2023-02-21T05:07:41;4.4;;;2.5;;
26824;SDS011;14402;48.178;11.566;2023-02-21T05:08:11;3.9;;;2.4;;
26824;SDS011;14402;48.178;11.566;2023-02-21T05:08:41;3.4;;;2.3;;
26824;SDS011;14402;48.178;11.566;2023-02-21T05:09:11;3.4;;;2.3;;
26824;SDS011;14402;48.178;11.566;2023-02-21T05:09:42;3.4;;;2.3;;
26824;SDS011;14402;48.178;11.566;2023-02-21T05:10:13;4.0;;;2.4;;
26824;SDS011;14402;48.178;11.566;2023-02-21T05:10:42;4.5;;;2.5;;
26824;SDS011;14402;48.178;11.566;2023-02-21T05:11:12;4.5;;;2.5;;
26824;SDS011;14402;48.178;11.566;2023-02-21T05:11:42;4.5;;;2.5;;
26824;SDS011;14402;48.178;11.566;2023-02-21T05:12:12;4.2;;;2.5;;
26824;SDS011;14402;48.178;11.566;2023-02-21T05:12:42;4.0;;;2.5;;
26824;SDS011;14402;48.178;11.566;2023-02-21T05:13:12;4.0;;;2.5;;
26824;SDS011;14402;48.178;11.566;2023-02-21T05:13:42;4.0;;;2.5;;
26824;SDS011;14402;48.178;11.566;2023-02-21T05:14:12;4.8;;;2.5;;
26824;SDS011;14402;48.178;11.566;2023-02-21T05:14:42;5.6;;;2.6;;
26824;SDS011;14402;48.178;11.566;2023-02-21T05:15:12;5.6;;;2.6;;
26824;SDS011;14402;48.178;11.566;2023-02-21T05:15:42;5.6;;;2.6;;
26824;SDS011;14402;48.178;11.566;2023-02-21T05:16:13;4.7;;;2.5;;
26824;SDS011;14402;48.178;11.566;2023-02-21T05:16:43;3.7;;;2.5;;
26824;SDS011;14402;48.178;11.566;2023-02-21T05:17:14;3.7;;;2.5;;
26824;SDS011;14402;48.178;11.566;2023-02-21T05:17:43;3.7;;;2.5;;
26824;SDS011;14402;48.178;11.566;2023-02-21T05:18:13;3.9;;;2.7;;
26824;SDS011;14402;48.178;11.566;2023-02-21T05:18:43;4.1;;;2.8;;
26824;SDS011;14402;48.178;11.566;2023-02-21T05:19:16;4.1;;;2.8;;
26824;SDS011;14402;48.178;11.566;2023-02-21T05:19:45;4.1;;;2.8;;
26824;SDS011;14402;48.178;11.566;2023-02-21T05:20:13;5.3;;;2.8;;
26824;SDS011;14402;48.178;11.566;2023-02-21T05:20:43;6.6;;;2.7;;
26824;SDS011;14402;48.178;11.566;2023-02-21T05:21:15;6.6;;;2.7;;
26824;SDS011;14402;48.178;11.566;2023-02-21T05:21:44;6.6;;;2.7;;
26824;SDS011;14402;48.178;11.566;2023-02-21T05:22:14;5.6;;;2.7;;
26824;SDS011;14402;48.178;11.566;2023-02-21T05:22:44;4.6;;;2.7;;
26824;SDS011;14402;48.178;11.566;2023-02-21T05:23:14;4.6;;;2.7;;
26824;SDS011;14402;48.178;11.566;2023-02-21T05:23:44;4.6;;;2.7;;
26824;SDS011;14402;48.178;11.566;2023-02-21T05:24:14;4.2;;;2.8;;
26824;SDS011;14402;48.178;11.566;2023-02-21T05:24:44;3.9;;;2.9;;
26824;SDS011;14402;48.178;11.566;2023-02-21T05:25:15;3.9;;;2.9;;
26824;SDS011;14402;48.178;11.566;2023-02-21T05:25:44;3.9;;;2.9;;